createdAt,value
2024-05-09T00:00:39.058Z,15.83
2024-05-09T00:01:33.764Z,15.72
2024-05-09T00:02:32.702Z,15.79
2024-05-09T00:03:32.768Z,15.69
2024-05-09T00:04:32.759Z,15.55
2024-05-09T00:05:32.840Z,15.60
2024-05-09T00:06:32.714Z,15.62
2024-05-09T00:07:32.748Z,15.46
2024-05-09T00:08:32.744Z,15.29
2024-05-09T00:09:32.720Z,15.50
2024-05-09T00:10:37.194Z,15.66
2024-05-09T00:11:33.833Z,15.66
2024-05-09T00:12:32.775Z,15.56
2024-05-09T00:13:32.767Z,15.63
2024-05-09T00:14:32.853Z,15.59
2024-05-09T00:15:32.768Z,15.65
2024-05-09T00:16:32.770Z,15.69
2024-05-09T00:17:32.961Z,15.69
2024-05-09T00:18:32.915Z,15.69
2024-05-09T00:19:32.888Z,15.79
2024-05-09T00:20:38.042Z,15.84
2024-05-09T00:21:33.790Z,15.94
2024-05-09T00:22:32.807Z,15.79
2024-05-09T00:23:33.019Z,15.73
2024-05-09T00:24:32.789Z,15.55
2024-05-09T00:25:32.792Z,15.59
2024-05-09T00:26:32.875Z,15.09
2024-05-09T00:27:32.801Z,15.25
2024-05-09T00:28:32.790Z,15.12
2024-05-09T00:29:32.955Z,15.19
2024-05-09T00:30:35.488Z,15.05
2024-05-09T00:31:32.791Z,15.25
2024-05-09T00:32:33.063Z,14.83
2024-05-09T00:33:32.907Z,14.99
2024-05-09T00:34:32.822Z,15.18
2024-05-09T00:35:32.953Z,15.19
2024-05-09T00:36:32.833Z,15.29
2024-05-09T00:37:32.820Z,15.45
2024-05-09T00:38:32.905Z,15.45
2024-05-09T00:39:32.823Z,15.55
2024-05-09T00:40:38.926Z,15.63
2024-05-09T00:41:33.927Z,15.63
2024-05-09T00:42:32.830Z,15.66
2024-05-09T00:43:32.905Z,15.73
2024-05-09T00:44:32.857Z,15.80
2024-05-09T00:45:32.835Z,15.83
2024-05-09T00:46:32.825Z,15.86
2024-05-09T00:47:32.999Z,15.84
2024-05-09T00:48:32.981Z,15.87
2024-05-09T00:49:32.951Z,15.93
2024-05-09T00:50:36.492Z,16.03
2024-05-09T00:51:32.836Z,15.70
2024-05-09T00:52:32.830Z,15.83
2024-05-09T00:53:32.908Z,15.94
2024-05-09T00:54:32.830Z,15.93
2024-05-09T00:55:32.850Z,15.98
2024-05-09T00:56:32.859Z,16.07
2024-05-09T00:57:32.847Z,16.10
2024-05-09T00:58:32.858Z,16.00
2024-05-09T00:59:32.868Z,15.90
2024-05-09T01:00:38.693Z,15.63
2024-05-09T01:01:33.973Z,15.65
2024-05-09T01:02:32.961Z,15.74
2024-05-09T01:03:33.067Z,15.65
2024-05-09T01:04:32.860Z,15.55
2024-05-09T01:05:32.937Z,15.55
2024-05-09T01:06:32.850Z,15.70
2024-05-09T01:07:32.848Z,15.73
2024-05-09T01:08:32.911Z,15.66
2024-05-09T01:09:32.833Z,15.50
2024-05-09T01:10:35.111Z,15.14
2024-05-09T01:11:32.968Z,15.29
2024-05-09T01:12:32.913Z,15.04
2024-05-09T01:13:32.849Z,14.90
2024-05-09T01:14:32.866Z,15.06
2024-05-09T01:15:32.867Z,14.66
2024-05-09T01:16:32.842Z,14.87
2024-05-09T01:17:32.924Z,14.94
2024-05-09T01:18:32.914Z,15.12
2024-05-09T01:19:33.021Z,14.90
2024-05-09T01:20:40.916Z,14.94
2024-05-09T01:21:33.870Z,15.09
2024-05-09T01:22:32.847Z,14.96
2024-05-09T01:23:32.928Z,14.95
2024-05-09T01:24:32.848Z,15.09
2024-05-09T01:25:32.857Z,15.22
2024-05-09T01:26:32.925Z,15.24
2024-05-09T01:27:32.863Z,15.46
2024-05-09T01:28:32.892Z,15.57
2024-05-09T01:29:32.861Z,15.60
2024-05-09T01:30:35.804Z,15.52
2024-05-09T01:31:32.899Z,15.63
2024-05-09T01:32:32.974Z,15.52
2024-05-09T01:33:33.398Z,15.65
2024-05-09T01:34:32.875Z,15.70
2024-05-09T01:35:32.899Z,15.60
2024-05-09T01:36:32.875Z,15.63
2024-05-09T01:37:32.910Z,15.52
2024-05-09T01:38:33.076Z,15.52
2024-05-09T01:39:32.881Z,15.46
2024-05-09T01:40:37.560Z,15.59
2024-05-09T01:41:33.982Z,15.49
2024-05-09T01:42:32.878Z,15.53
2024-05-09T01:43:32.881Z,15.65
2024-05-09T01:44:32.941Z,15.72
2024-05-09T01:45:33.052Z,15.63
2024-05-09T01:46:32.932Z,15.70
2024-05-09T01:47:33.122Z,15.66
2024-05-09T01:48:32.943Z,15.69
2024-05-09T01:49:32.931Z,15.72
2024-05-09T01:50:38.981Z,15.60
2024-05-09T01:51:33.916Z,15.57
2024-05-09T01:52:32.930Z,15.69
2024-05-09T01:53:33.014Z,15.74
2024-05-09T01:54:32.935Z,15.84
2024-05-09T01:55:32.915Z,15.66
2024-05-09T01:56:33.079Z,15.79
2024-05-09T01:57:32.924Z,15.77
2024-05-09T01:58:32.970Z,15.77
2024-05-09T01:59:33.094Z,15.87
2024-05-09T02:00:38.996Z,15.83
2024-05-09T02:01:55.483Z,15.73
2024-05-09T02:02:34.019Z,15.87
2024-05-09T02:03:33.045Z,15.89
2024-05-09T02:04:32.967Z,15.82
2024-05-09T02:05:32.986Z,15.87
2024-05-09T02:06:32.952Z,15.80
2024-05-09T02:07:33.239Z,15.70
2024-05-09T02:08:33.122Z,15.62
2024-05-09T02:09:32.925Z,15.50
2024-05-09T02:10:33.561Z,15.62
2024-05-09T02:11:32.996Z,15.49
2024-05-09T02:12:33.101Z,15.43
2024-05-09T02:13:32.978Z,15.53
2024-05-09T02:14:32.963Z,15.62
2024-05-09T02:15:32.937Z,15.57
2024-05-09T02:16:32.954Z,15.42
2024-05-09T02:17:33.058Z,15.60
2024-05-09T02:18:33.055Z,15.66
2024-05-09T02:19:33.257Z,15.60
2024-05-09T02:20:36.367Z,15.56
2024-05-09T02:21:32.984Z,15.65
2024-05-09T02:22:32.993Z,15.53
2024-05-09T02:23:33.061Z,15.67
2024-05-09T02:24:32.979Z,15.66
2024-05-09T02:25:33.144Z,15.70
2024-05-09T02:26:32.991Z,15.63
2024-05-09T02:27:32.964Z,15.82
2024-05-09T02:28:32.959Z,15.79
2024-05-09T02:29:33.082Z,15.74
2024-05-09T02:30:39.103Z,15.72
2024-05-09T02:31:33.997Z,15.74
2024-05-09T02:32:33.162Z,15.84
2024-05-09T02:33:33.394Z,15.93
2024-05-09T02:34:33.076Z,15.96
2024-05-09T02:35:33.071Z,15.98
2024-05-09T02:36:32.994Z,16.06
2024-05-09T02:37:32.992Z,15.97
2024-05-09T02:38:33.098Z,15.97
2024-05-09T02:39:32.999Z,16.03
2024-05-09T02:40:37.194Z,16.10
2024-05-09T02:41:34.013Z,16.04
2024-05-09T02:42:33.005Z,16.11
2024-05-09T02:43:33.018Z,16.14
2024-05-09T02:44:33.029Z,16.18
2024-05-09T02:45:33.188Z,16.21
2024-05-09T02:46:33.028Z,16.08
2024-05-09T02:47:33.177Z,15.87
2024-05-09T02:48:33.193Z,16.00
2024-05-09T02:49:33.090Z,15.90
2024-05-09T02:50:38.068Z,15.84
2024-05-09T02:51:34.042Z,15.57
2024-05-09T02:52:33.031Z,15.59
2024-05-09T02:53:33.073Z,15.57
2024-05-09T02:54:33.028Z,15.36
2024-05-09T02:55:33.235Z,15.59
2024-05-09T02:56:33.096Z,15.46
2024-05-09T02:57:33.037Z,15.39
2024-05-09T02:58:33.015Z,15.31
2024-05-09T02:59:33.061Z,15.04
2024-05-09T03:00:38.966Z,15.31
2024-05-09T03:01:34.129Z,15.26
2024-05-09T03:02:33.205Z,15.35
2024-05-09T03:03:33.288Z,15.45
2024-05-09T03:04:33.160Z,15.46
2024-05-09T03:05:33.266Z,15.46
2024-05-09T03:06:33.051Z,15.53
2024-05-09T03:07:33.041Z,15.65
2024-05-09T03:08:33.143Z,15.59
2024-05-09T03:09:33.058Z,15.50
2024-05-09T03:10:36.380Z,15.62
2024-05-09T03:11:34.162Z,15.70
2024-05-09T03:12:34.065Z,15.69
2024-05-09T03:13:33.052Z,15.66
2024-05-09T03:14:33.106Z,15.76
2024-05-09T03:15:33.292Z,15.69
2024-05-09T03:16:33.085Z,15.74
2024-05-09T03:17:33.323Z,15.69
2024-05-09T03:18:33.159Z,15.70
2024-05-09T03:19:33.202Z,15.74
2024-05-09T03:20:35.415Z,15.77
2024-05-09T03:21:33.107Z,15.70
2024-05-09T03:22:33.092Z,15.59
2024-05-09T03:23:33.117Z,15.72
2024-05-09T03:24:33.104Z,15.82
2024-05-09T03:25:33.116Z,15.73
2024-05-09T03:26:33.116Z,15.82
2024-05-09T03:27:33.106Z,15.76
2024-05-09T03:28:33.116Z,15.86
2024-05-09T03:29:33.167Z,15.93
2024-05-09T03:30:40.511Z,15.98
2024-05-09T03:31:34.107Z,16.01
2024-05-09T03:32:33.256Z,16.04
2024-05-09T03:33:33.332Z,16.07
2024-05-09T03:34:33.127Z,16.03
2024-05-09T03:35:33.155Z,16.03
2024-05-09T03:36:33.108Z,16.10
2024-05-09T03:37:33.162Z,16.13
2024-05-09T03:38:33.228Z,16.07
2024-05-09T03:39:33.127Z,16.17
2024-05-09T03:40:33.130Z,16.20
2024-05-09T03:41:33.299Z,16.16
2024-05-09T03:42:33.140Z,16.16
2024-05-09T03:43:33.120Z,16.18
2024-05-09T03:44:33.233Z,16.18
2024-05-09T03:45:33.210Z,16.16
2024-05-09T03:46:33.225Z,15.84
2024-05-09T03:47:33.411Z,15.74
2024-05-09T03:48:33.350Z,15.89
2024-05-09T03:49:33.423Z,15.89
2024-05-09T03:50:35.642Z,15.87
2024-05-09T03:51:33.312Z,15.77
2024-05-09T03:52:33.349Z,15.79
2024-05-09T03:53:33.501Z,15.49
2024-05-09T03:54:33.349Z,15.72
2024-05-09T03:55:33.346Z,15.73
2024-05-09T03:56:33.352Z,15.62
2024-05-09T03:57:33.353Z,15.38
2024-05-09T03:58:33.334Z,15.09
2024-05-09T03:59:33.395Z,15.05
2024-05-09T04:00:38.104Z,14.85
2024-05-09T04:01:34.424Z,14.92
2024-05-09T04:02:33.437Z,14.91
2024-05-09T04:03:33.525Z,15.12
2024-05-09T04:04:33.451Z,15.05
2024-05-09T04:05:33.487Z,14.99
2024-05-09T04:06:33.362Z,15.19
2024-05-09T04:07:33.375Z,15.05
2024-05-09T04:08:33.510Z,15.08
2024-05-09T04:09:33.377Z,14.91
2024-05-09T04:10:34.911Z,14.81
2024-05-09T04:11:33.481Z,14.75
2024-05-09T04:12:33.451Z,14.90
2024-05-09T04:13:33.361Z,14.85
2024-05-09T04:14:33.428Z,14.92
2024-05-09T04:15:33.439Z,14.81
2024-05-09T04:16:33.369Z,14.81
2024-05-09T04:17:33.548Z,14.96
2024-05-09T04:18:33.660Z,15.14
2024-05-09T04:19:33.658Z,15.01
2024-05-09T04:20:38.677Z,15.06
2024-05-09T04:21:34.600Z,14.95
2024-05-09T04:22:33.604Z,14.74
2024-05-09T04:23:33.806Z,14.71
2024-05-09T04:24:33.604Z,14.71
2024-05-09T04:25:33.654Z,14.73
2024-05-09T04:26:33.689Z,14.91
2024-05-09T04:27:33.619Z,14.99
2024-05-09T04:28:33.622Z,15.19
2024-05-09T04:29:33.693Z,15.19
2024-05-09T04:30:38.278Z,15.35
2024-05-09T04:31:34.626Z,15.45
2024-05-09T04:32:33.732Z,15.55
2024-05-09T04:33:33.825Z,15.46
2024-05-09T04:34:33.793Z,15.63
2024-05-09T04:35:33.685Z,15.56
2024-05-09T04:36:33.638Z,15.62
2024-05-09T04:37:33.652Z,15.72
2024-05-09T04:38:33.789Z,15.72
2024-05-09T04:39:41.327Z,15.77
2024-05-09T04:40:41.376Z,15.66
2024-05-09T04:41:41.494Z,15.56
2024-05-09T04:42:41.514Z,15.63
2024-05-09T04:43:41.569Z,15.76
2024-05-09T04:44:41.603Z,15.80
2024-05-09T04:45:41.683Z,15.83
2024-05-09T04:46:41.738Z,15.84
2024-05-09T04:47:41.967Z,15.96
2024-05-09T04:48:41.975Z,15.89
2024-05-09T04:49:41.909Z,15.77
2024-05-09T04:50:42.024Z,15.86
2024-05-09T04:51:42.005Z,15.73
2024-05-09T04:52:42.057Z,15.82
2024-05-09T04:53:42.126Z,15.80
2024-05-09T04:54:42.158Z,15.73
2024-05-09T04:55:42.221Z,15.86
2024-05-09T04:56:42.339Z,15.77
2024-05-09T04:57:42.366Z,15.83
2024-05-09T04:58:42.432Z,15.87
2024-05-09T04:59:42.437Z,15.87
2024-05-09T05:00:42.604Z,15.97
2024-05-09T05:01:42.590Z,16.06
2024-05-09T05:02:42.766Z,15.98
2024-05-09T05:03:42.911Z,15.79
2024-05-09T05:04:42.878Z,16.03
2024-05-09T05:05:43.413Z,16.01
2024-05-09T05:06:42.858Z,16.11
2024-05-09T05:07:42.899Z,15.94
2024-05-09T05:08:43.005Z,16.01
2024-05-09T05:09:42.996Z,16.07
2024-05-09T05:10:43.084Z,16.29
2024-05-09T05:11:43.170Z,16.40
2024-05-09T05:12:43.111Z,16.50
2024-05-09T05:13:43.182Z,16.59
2024-05-09T05:14:43.205Z,16.71
2024-05-09T05:15:43.252Z,16.78
2024-05-09T05:16:43.285Z,16.89
2024-05-09T05:17:43.596Z,16.95
2024-05-09T05:18:43.457Z,17.05
2024-05-09T05:19:43.603Z,17.10
2024-05-09T05:20:43.632Z,17.17
2024-05-09T05:21:43.567Z,17.23
2024-05-09T05:22:43.599Z,17.31
2024-05-09T05:23:43.659Z,17.33
2024-05-09T05:24:43.633Z,17.41
2024-05-09T05:25:43.730Z,17.46
2024-05-09T05:26:43.713Z,17.46
2024-05-09T05:27:43.703Z,17.51
2024-05-09T05:28:43.714Z,17.56
2024-05-09T05:29:43.839Z,17.58
2024-05-09T05:30:43.850Z,17.63
2024-05-09T05:31:43.932Z,17.66
2024-05-09T05:32:44.088Z,17.71
2024-05-09T05:33:44.063Z,17.76
2024-05-09T05:34:44.043Z,17.76
2024-05-09T05:35:44.112Z,17.81
2024-05-09T05:36:44.081Z,17.82
2024-05-09T05:37:44.157Z,17.82
2024-05-09T05:38:44.306Z,17.88
2024-05-09T05:39:44.172Z,17.66
2024-05-09T05:40:44.335Z,17.73
2024-05-09T05:41:44.287Z,17.74
2024-05-09T05:42:44.300Z,17.84
2024-05-09T05:43:44.449Z,17.91
2024-05-09T05:44:44.354Z,17.98
2024-05-09T05:45:44.442Z,17.88
2024-05-09T05:46:44.509Z,18.04
2024-05-09T05:47:44.780Z,18.12
2024-05-09T05:48:44.599Z,18.22
2024-05-09T05:49:44.514Z,18.13
2024-05-09T05:50:44.676Z,18.24
2024-05-09T05:51:44.625Z,18.31
2024-05-09T05:52:44.762Z,18.41
2024-05-09T05:53:44.774Z,18.48
2024-05-09T05:54:44.727Z,18.50
2024-05-09T05:55:44.836Z,18.60
2024-05-09T05:56:44.912Z,18.69
2024-05-09T05:57:44.906Z,18.76
2024-05-09T05:58:45.145Z,18.93
2024-05-09T05:59:45.061Z,19.13
2024-05-09T06:00:45.218Z,19.34
2024-05-09T06:01:45.159Z,19.50
2024-05-09T06:02:45.327Z,19.65
2024-05-09T06:03:45.304Z,19.79
2024-05-09T06:04:45.366Z,19.73
2024-05-09T06:05:45.270Z,19.86
2024-05-09T06:06:45.332Z,19.92
2024-05-09T06:07:45.403Z,19.91
2024-05-09T06:08:45.510Z,19.91
2024-05-09T06:09:47.611Z,19.86
2024-05-09T06:10:45.514Z,19.86
2024-05-09T06:11:45.603Z,19.91
2024-05-09T06:12:45.447Z,19.95
2024-05-09T06:13:45.506Z,20.03
2024-05-09T06:14:45.419Z,20.03
2024-05-09T06:15:45.431Z,20.05
2024-05-09T06:16:45.465Z,20.02
2024-05-09T06:17:45.743Z,20.00
2024-05-09T06:18:45.563Z,19.95
2024-05-09T06:19:45.587Z,19.88
2024-05-09T06:20:45.486Z,19.88
2024-05-09T06:21:45.453Z,19.82
2024-05-09T06:22:45.441Z,19.75
2024-05-09T06:23:45.494Z,19.88
2024-05-09T06:24:45.449Z,19.91
2024-05-09T06:25:45.471Z,19.93
2024-05-09T06:26:45.440Z,19.95
2024-05-09T06:27:45.530Z,20.02
2024-05-09T06:28:45.499Z,20.00
2024-05-09T06:29:45.448Z,20.06
2024-05-09T06:30:45.493Z,20.03
2024-05-09T06:31:45.530Z,20.06
2024-05-09T06:32:45.567Z,20.12
2024-05-09T06:33:45.585Z,20.13
2024-05-09T06:34:45.628Z,20.17
2024-05-09T06:35:45.542Z,20.26
2024-05-09T06:36:45.463Z,20.33
2024-05-09T06:37:45.486Z,20.36
2024-05-09T06:38:45.539Z,20.47
2024-05-09T06:39:45.471Z,20.51
2024-05-09T06:40:45.786Z,20.57
2024-05-09T06:41:45.463Z,20.70
2024-05-09T06:42:45.474Z,20.71
2024-05-09T06:43:45.540Z,20.84
2024-05-09T06:44:45.525Z,20.87
2024-05-09T06:45:45.486Z,20.95
2024-05-09T06:46:45.714Z,21.02
2024-05-09T06:47:45.568Z,21.15
2024-05-09T06:48:45.849Z,21.32
2024-05-09T06:49:45.547Z,21.46
2024-05-09T06:50:45.622Z,21.66
2024-05-09T06:51:45.484Z,21.67
2024-05-09T06:52:45.554Z,21.65
2024-05-09T06:53:45.613Z,21.93
2024-05-09T06:54:45.624Z,21.92
2024-05-09T06:55:45.729Z,21.95
2024-05-09T06:56:45.682Z,22.00
2024-05-09T06:57:45.688Z,21.96
2024-05-09T06:58:45.780Z,21.96
2024-05-09T06:59:45.774Z,21.89
2024-05-09T07:00:45.911Z,22.00
2024-05-09T07:01:45.938Z,22.17
2024-05-09T07:02:46.068Z,22.06
2024-05-09T07:03:46.085Z,21.97
2024-05-09T07:04:46.100Z,21.89
2024-05-09T07:05:47.084Z,21.83
2024-05-09T07:06:46.107Z,21.72
2024-05-09T07:07:46.264Z,21.60
2024-05-09T07:08:47.409Z,21.52
2024-05-09T07:09:46.304Z,21.55
2024-05-09T07:10:46.586Z,21.45
2024-05-09T07:11:46.518Z,21.45
2024-05-09T07:12:46.462Z,21.39
2024-05-09T07:13:46.527Z,21.42
2024-05-09T07:14:46.606Z,21.42
2024-05-09T07:15:46.542Z,21.22
2024-05-09T07:16:46.702Z,21.38
2024-05-09T07:17:46.821Z,21.25
2024-05-09T07:18:46.920Z,21.26
2024-05-09T07:19:46.856Z,21.29
2024-05-09T07:20:47.394Z,21.39
2024-05-09T07:21:46.886Z,21.39
2024-05-09T07:22:46.925Z,21.41
2024-05-09T07:23:47.551Z,21.52
2024-05-09T07:24:47.064Z,21.59
2024-05-09T07:25:47.332Z,21.41
2024-05-09T07:26:47.217Z,21.56
2024-05-09T07:27:47.236Z,21.65
2024-05-09T07:28:47.327Z,21.73
2024-05-09T07:29:47.406Z,21.75
2024-05-09T07:30:47.354Z,21.80
2024-05-09T07:31:47.409Z,21.83
2024-05-09T07:32:47.853Z,21.75
2024-05-09T07:33:47.522Z,21.82
2024-05-09T07:34:47.502Z,21.92
2024-05-09T07:35:47.590Z,21.89
2024-05-09T07:36:47.548Z,21.79
2024-05-09T07:37:47.621Z,21.96
2024-05-09T07:38:47.732Z,22.08
2024-05-09T07:39:47.688Z,22.06
2024-05-09T07:40:47.838Z,22.08
2024-05-09T07:41:47.810Z,22.04
2024-05-09T07:42:47.832Z,22.18
2024-05-09T07:43:47.891Z,22.16
2024-05-09T07:44:47.937Z,22.20
2024-05-09T07:45:53.093Z,22.21
2024-05-09T07:47:48.786Z,22.20
2024-05-09T07:49:13.626Z,22.18
2024-05-09T07:53:17.300Z,22.16
2024-05-09T07:53:34.820Z,22.24
2024-05-09T07:53:52.210Z,22.27
2024-05-09T07:54:49.276Z,22.31
2024-05-09T07:55:48.059Z,22.34
2024-05-09T07:56:48.079Z,22.27
2024-05-09T07:57:48.027Z,22.38
2024-05-09T07:58:47.975Z,22.37
2024-05-09T07:59:47.976Z,22.33
2024-05-09T08:00:48.176Z,22.44
2024-05-09T08:01:48.059Z,22.51
2024-05-09T08:02:48.048Z,22.48
2024-05-09T08:03:48.195Z,22.48
2024-05-09T08:04:48.164Z,22.40
2024-05-09T08:05:48.032Z,22.64
2024-05-09T08:06:48.068Z,22.78
2024-05-09T08:07:48.012Z,22.72
2024-05-09T08:08:47.987Z,22.67
2024-05-09T08:09:48.025Z,22.78
2024-05-09T08:10:48.066Z,22.81
2024-05-09T08:11:48.024Z,22.85
2024-05-09T08:12:48.037Z,22.84
2024-05-09T08:13:48.044Z,22.87
2024-05-09T08:14:47.995Z,22.89
2024-05-09T08:15:48.055Z,22.85
2024-05-09T08:16:48.044Z,22.91
2024-05-09T08:17:48.115Z,22.92
2024-05-09T08:18:48.094Z,22.94
2024-05-09T08:19:48.083Z,22.92
2024-05-09T08:20:48.012Z,23.01
2024-05-09T08:21:48.053Z,23.09
2024-05-09T08:22:48.037Z,23.19
2024-05-09T08:23:48.018Z,23.23
2024-05-09T08:24:48.059Z,23.34
2024-05-09T08:25:48.120Z,23.48
2024-05-09T08:26:48.146Z,23.50
2024-05-09T08:27:48.176Z,23.46
2024-05-09T08:28:48.186Z,23.50
2024-05-09T08:29:48.267Z,23.49
2024-05-09T08:30:48.563Z,23.70
2024-05-09T08:31:48.390Z,23.73
2024-05-09T08:32:48.541Z,23.80
2024-05-09T08:33:48.756Z,23.83
2024-05-09T08:34:48.425Z,24.10
2024-05-09T08:35:48.425Z,24.18
2024-05-09T08:36:48.502Z,24.22
2024-05-09T08:37:48.578Z,24.00
2024-05-09T08:38:48.545Z,24.11
2024-05-09T08:39:48.683Z,24.17
2024-05-09T08:40:48.776Z,24.18
2024-05-09T08:41:48.664Z,24.25
2024-05-09T08:42:48.792Z,24.21
2024-05-09T08:43:48.763Z,24.36
2024-05-09T08:44:48.846Z,24.41
2024-05-09T08:45:48.868Z,24.54
2024-05-09T08:46:48.880Z,24.48
2024-05-09T08:47:48.924Z,24.22
2024-05-09T08:48:49.063Z,24.38
2024-05-09T08:49:49.042Z,24.35
2024-05-09T08:50:49.164Z,24.48
2024-05-09T08:51:49.146Z,24.43
2024-05-09T08:52:49.192Z,24.68
2024-05-09T08:53:49.263Z,24.82
2024-05-09T08:54:49.338Z,24.89
2024-05-09T08:55:49.323Z,24.47
2024-05-09T08:56:49.376Z,24.87
2024-05-09T08:57:49.465Z,24.92
2024-05-09T08:58:49.571Z,25.02
2024-05-09T08:59:49.519Z,25.16
2024-05-09T09:00:49.996Z,25.17
2024-05-09T09:01:49.684Z,25.22
2024-05-09T09:02:49.754Z,25.19
2024-05-09T09:03:49.870Z,25.07
2024-05-09T09:04:50.136Z,25.29
2024-05-09T09:05:49.823Z,25.37
2024-05-09T09:06:49.896Z,25.51
2024-05-09T09:07:49.955Z,25.71
2024-05-09T09:08:49.948Z,25.65
2024-05-09T09:09:50.027Z,25.89
2024-05-09T09:10:50.092Z,25.84
2024-05-09T09:11:50.140Z,25.85
2024-05-09T09:12:50.197Z,25.91
2024-05-09T09:13:50.167Z,26.01
2024-05-09T09:14:50.174Z,26.11
2024-05-09T09:15:50.351Z,26.12
2024-05-09T09:16:50.273Z,26.23
2024-05-09T09:17:50.450Z,26.32
2024-05-09T09:18:50.588Z,26.45
2024-05-09T09:19:50.442Z,26.35
2024-05-09T09:20:50.497Z,26.43
2024-05-09T09:21:50.623Z,26.46
2024-05-09T09:22:50.567Z,26.42
2024-05-09T09:23:50.586Z,26.43
2024-05-09T09:24:50.653Z,26.35
2024-05-09T09:25:50.803Z,26.43
2024-05-09T09:26:50.721Z,26.33
2024-05-09T09:27:50.827Z,26.39
2024-05-09T09:28:50.855Z,26.36
2024-05-09T09:29:50.903Z,26.43
2024-05-09T09:30:51.080Z,26.50
2024-05-09T09:31:51.350Z,26.32
2024-05-09T09:32:51.073Z,26.53
2024-05-09T09:33:51.306Z,26.56
2024-05-09T09:34:51.127Z,26.60
2024-05-09T09:35:51.104Z,26.53
2024-05-09T09:36:51.226Z,26.56
2024-05-09T09:37:51.192Z,26.56
2024-05-09T09:38:51.263Z,26.56
2024-05-09T09:39:51.341Z,26.60
2024-05-09T09:40:51.485Z,26.60
2024-05-09T09:41:51.410Z,26.55
2024-05-09T09:42:51.564Z,26.63
2024-05-09T09:43:51.554Z,26.69
2024-05-09T09:45:01.824Z,26.67
2024-05-09T09:45:53.528Z,26.69
2024-05-09T09:46:51.635Z,26.55
2024-05-09T09:47:51.718Z,26.64
2024-05-09T09:48:51.788Z,26.69
2024-05-09T09:49:51.723Z,26.66
2024-05-09T09:50:51.740Z,26.59
2024-05-09T09:51:51.774Z,26.72
2024-05-09T09:52:51.734Z,26.56
2024-05-09T09:53:51.769Z,26.46
2024-05-09T09:54:51.938Z,26.64
2024-05-09T09:55:51.865Z,26.70
2024-05-09T09:56:51.946Z,26.74
2024-05-09T09:57:52.075Z,26.72
2024-05-09T09:58:52.008Z,26.74
2024-05-09T09:59:52.056Z,26.62
2024-05-09T10:00:52.212Z,26.72
2024-05-09T10:01:52.229Z,26.64
2024-05-09T10:02:52.249Z,26.64
2024-05-09T10:03:52.458Z,26.32
2024-05-09T10:04:52.412Z,26.52
2024-05-09T10:05:52.385Z,26.60
2024-05-09T10:06:52.368Z,26.67
2024-05-09T10:07:52.389Z,26.70
2024-05-09T10:08:52.446Z,26.64
2024-05-09T10:09:52.469Z,26.45
2024-05-09T10:10:52.778Z,26.72
2024-05-09T10:11:59.575Z,26.64
2024-05-09T10:12:53.603Z,26.46
2024-05-09T10:13:52.535Z,26.33
2024-05-09T10:14:52.564Z,26.66
2024-05-09T10:15:52.931Z,26.59
2024-05-09T10:16:52.560Z,26.69
2024-05-09T10:17:52.673Z,26.66
2024-05-09T10:18:52.825Z,26.69
2024-05-09T10:19:52.723Z,26.84
2024-05-09T10:20:52.558Z,26.76
2024-05-09T10:21:52.631Z,26.89
2024-05-09T10:22:52.540Z,26.94
2024-05-09T10:23:52.581Z,27.04
2024-05-09T10:24:52.627Z,27.08
2024-05-09T10:25:52.575Z,27.05
2024-05-09T10:26:52.554Z,26.97
2024-05-09T10:27:52.566Z,27.17
2024-05-09T10:28:52.591Z,27.04
2024-05-09T10:29:52.580Z,27.20
2024-05-09T10:30:52.639Z,27.27
2024-05-09T10:31:52.658Z,27.10
2024-05-09T10:32:52.753Z,27.20
2024-05-09T10:33:53.320Z,27.35
2024-05-09T10:34:52.758Z,27.42
2024-05-09T10:35:52.753Z,27.46
2024-05-09T10:36:52.884Z,27.42
2024-05-09T10:37:52.951Z,27.23
2024-05-09T10:38:52.979Z,27.37
2024-05-09T10:39:53.106Z,27.51
2024-05-09T10:40:53.076Z,27.27
2024-05-09T10:41:53.118Z,27.46
2024-05-09T10:42:53.186Z,27.56
2024-05-09T10:43:53.238Z,26.97
2024-05-09T10:44:53.264Z,27.40
2024-05-09T10:45:53.486Z,27.56
2024-05-09T10:46:53.425Z,27.65
2024-05-09T10:47:53.552Z,27.61
2024-05-09T10:48:53.666Z,27.75
2024-05-09T10:49:53.742Z,27.81
2024-05-09T10:50:53.632Z,27.91
2024-05-09T10:51:53.746Z,27.75
2024-05-09T10:52:53.744Z,27.69
2024-05-09T10:53:53.791Z,27.89
2024-05-09T10:54:53.850Z,27.85
2024-05-09T10:55:53.868Z,27.56
2024-05-09T10:56:53.901Z,27.91
2024-05-09T10:57:53.986Z,27.86
2024-05-09T10:58:53.942Z,27.88
2024-05-09T10:59:53.970Z,27.99
2024-05-09T11:00:54.163Z,27.99
2024-05-09T11:01:54.230Z,28.10
2024-05-09T11:02:54.188Z,27.97
2024-05-09T11:03:54.411Z,28.13
2024-05-09T11:04:54.283Z,28.24
2024-05-09T11:05:54.338Z,28.24
2024-05-09T11:06:54.376Z,28.23
2024-05-09T11:07:54.354Z,28.00
2024-05-09T11:08:54.388Z,28.10
2024-05-09T11:09:54.452Z,28.27
2024-05-09T11:10:54.546Z,28.35
2024-05-09T11:11:54.554Z,28.35
2024-05-09T11:12:54.533Z,28.43
2024-05-09T11:13:54.528Z,28.44
2024-05-09T11:14:54.546Z,28.48
2024-05-09T11:15:54.782Z,28.63
2024-05-09T11:16:54.604Z,28.71
2024-05-09T11:17:54.787Z,28.75
2024-05-09T11:18:55.110Z,28.71
2024-05-09T11:19:54.812Z,28.50
2024-05-09T11:20:54.787Z,28.57
2024-05-09T11:21:54.853Z,28.70
2024-05-09T11:23:11.903Z,28.75
2024-05-09T11:24:11.971Z,28.91
2024-05-09T11:25:12.013Z,28.97
2024-05-09T11:26:11.888Z,29.01
2024-05-09T11:27:11.947Z,29.08
2024-05-09T11:28:11.997Z,28.93
2024-05-09T11:29:12.244Z,29.12
2024-05-09T11:30:20.828Z,29.07
2024-05-09T11:31:12.951Z,29.25
2024-05-09T11:32:11.998Z,29.38
2024-05-09T11:33:11.982Z,29.45
2024-05-09T11:34:11.969Z,29.35
2024-05-09T11:35:11.915Z,29.52
2024-05-09T11:36:11.915Z,29.68
2024-05-09T11:37:12.041Z,29.76
2024-05-09T11:38:11.943Z,29.79
2024-05-09T11:39:11.953Z,29.84
2024-05-09T11:40:20.733Z,29.76
2024-05-09T11:41:12.950Z,29.79
2024-05-09T11:42:11.971Z,29.75
2024-05-09T11:43:12.132Z,29.84
2024-05-09T11:44:11.937Z,29.93
2024-05-09T11:45:11.956Z,30.00
2024-05-09T11:46:12.119Z,30.01
2024-05-09T11:47:12.006Z,29.96
2024-05-09T11:48:12.046Z,30.04
2024-05-09T11:49:12.195Z,30.04
2024-05-09T11:50:19.139Z,30.26
2024-05-09T11:51:12.974Z,30.21
2024-05-09T11:52:12.034Z,30.42
2024-05-09T11:53:11.979Z,30.48
2024-05-09T11:54:12.006Z,30.64
2024-05-09T11:55:12.014Z,30.48
2024-05-09T11:56:12.023Z,30.55
2024-05-09T11:57:11.980Z,30.62
2024-05-09T11:58:12.060Z,30.00
2024-05-09T11:59:11.993Z,30.35
2024-05-09T12:00:14.934Z,30.37
2024-05-09T12:01:13.075Z,30.14
2024-05-09T12:02:12.143Z,30.48
2024-05-09T12:03:12.038Z,30.42
2024-05-09T12:04:12.258Z,30.65
2024-05-09T12:05:12.122Z,30.79
2024-05-09T12:06:12.053Z,30.93
2024-05-09T12:07:13.130Z,31.15
2024-05-09T12:08:12.014Z,30.93
2024-05-09T12:09:12.004Z,30.75
2024-05-09T12:10:16.794Z,30.51
2024-05-09T12:11:13.142Z,30.17
2024-05-09T12:12:12.014Z,30.01
2024-05-09T12:13:12.057Z,29.99
2024-05-09T12:14:12.050Z,29.89
2024-05-09T12:15:12.036Z,29.76
2024-05-09T12:16:12.077Z,29.70
2024-05-09T12:17:12.085Z,29.63
2024-05-09T12:18:12.085Z,29.65
2024-05-09T12:19:12.104Z,28.66
2024-05-09T12:20:20.943Z,29.39
2024-05-09T12:21:13.037Z,29.29
2024-05-09T12:22:12.136Z,29.21
2024-05-09T12:23:12.099Z,28.90
2024-05-09T12:24:14.438Z,29.15
2024-05-09T12:25:12.094Z,29.26
2024-05-09T12:26:12.057Z,29.48
2024-05-09T12:27:12.104Z,29.42
2024-05-09T12:28:12.135Z,29.84
2024-05-09T12:29:12.066Z,29.84
2024-05-09T12:30:20.741Z,29.56
2024-05-09T12:31:13.090Z,29.30
2024-05-09T12:32:12.088Z,29.22
2024-05-09T12:33:13.082Z,29.15
2024-05-09T12:34:12.280Z,29.02
2024-05-09T12:35:12.060Z,28.79
2024-05-09T12:36:12.074Z,28.87
2024-05-09T12:37:12.150Z,28.74
2024-05-09T12:38:12.080Z,28.47
2024-05-09T12:39:12.088Z,28.43
2024-05-09T12:41:12.096Z,28.19
2024-05-09T12:42:16.620Z,28.22
2024-05-09T12:43:13.144Z,28.27
2024-05-09T12:44:12.125Z,28.16
2024-05-09T12:45:12.099Z,28.12
2024-05-09T12:46:12.166Z,27.92
2024-05-09T12:47:12.107Z,27.96
2024-05-09T12:48:12.957Z,27.99
2024-05-09T12:49:13.760Z,28.03
2024-05-09T12:51:12.129Z,28.06
2024-05-09T12:52:12.129Z,27.97
2024-05-09T12:53:12.105Z,28.02
2024-05-09T12:54:12.129Z,28.03
2024-05-09T12:55:12.170Z,27.99
2024-05-09T12:56:12.145Z,28.12
2024-05-09T12:57:12.260Z,28.00
2024-05-09T12:58:12.362Z,28.05